sensor_id;sensor_type;location;lat;lon;timestamp;P1;durP1;ratioP1;P2;durP2;ratioP2
1955;SDS011;978;48.314;11.562;2023-05-24T00:01:22;6.50;;;0.50;;
1955;SDS011;978;48.314;11.562;2023-05-24T00:03:52;7.07;;;1.23;;
1955;SDS011;978;48.314;11.562;2023-05-24T00:06:22;6.60;;;0.60;;
1955;SDS011;978;48.314;11.562;2023-05-24T00:08:52;6.50;;;0.50;;
1955;SDS011;978;48.314;11.562;2023-05-24T00:11:19;6.70;;;0.80;;
1955;SDS011;978;48.314;11.562;2023-05-24T00:13:48;6.90;;;1.00;;
1955;SDS011;978;48.314;11.562;2023-05-24T00:16:16;6.40;;;0.80;;
1955;SDS011;978;48.314;11.562;2023-05-24T00:18:45;6.70;;;0.73;;
1955;SDS011;978;48.314;11.562;2023-05-24T00:21:12;6.57;;;0.50;;
1955;SDS011;978;48.314;11.562;2023-05-24T00:23:39;6.60;;;0.50;;
1955;SDS011;978;48.314;11.562;2023-05-24T00:26:09;7.00;;;1.23;;
1955;SDS011;978;48.314;11.562;2023-05-24T00:28:36;7.00;;;1.40;;
1955;SDS011;978;48.314;11.562;2023-05-24T00:31:04;6.70;;;0.73;;
1955;SDS011;978;48.314;11.562;2023-05-24T00:33:32;6.47;;;0.50;;
1955;SDS011;978;48.314;11.562;2023-05-24T00:36:02;6.47;;;0.60;;
1955;SDS011;978;48.314;11.562;2023-05-24T00:38:29;6.57;;;0.60;;
1955;SDS011;978;48.314;11.562;2023-05-24T00:40:56;6.50;;;0.70;;
1955;SDS011;978;48.314;11.562;2023-05-24T00:43:25;6.50;;;0.50;;
1955;SDS011;978;48.314;11.562;2023-05-24T00:46:02;6.70;;;0.70;;
1955;SDS011;978;48.314;11.562;2023-05-24T00:48:41;6.37;;;0.67;;
1955;SDS011;978;48.314;11.562;2023-05-24T00:51:11;6.50;;;0.63;;
1955;SDS011;978;48.314;11.562;2023-05-24T00:53:39;6.90;;;1.20;;
1955;SDS011;978;48.314;11.562;2023-05-24T00:56:07;6.60;;;0.70;;
1955;SDS011;978;48.314;11.562;2023-05-24T00:58:41;9.63;;;0.93;;
1955;SDS011;978;48.314;11.562;2023-05-24T01:01:08;6.40;;;0.50;;
1955;SDS011;978;48.314;11.562;2023-05-24T01:03:37;6.50;;;0.80;;
1955;SDS011;978;48.314;11.562;2023-05-24T01:06:05;6.80;;;0.90;;
1955;SDS011;978;48.314;11.562;2023-05-24T01:08:41;6.33;;;0.53;;
1955;SDS011;978;48.314;11.562;2023-05-24T01:11:16;6.47;;;0.57;;
1955;SDS011;978;48.314;11.562;2023-05-24T01:13:52;6.37;;;0.50;;
1955;SDS011;978;48.314;11.562;2023-05-24T01:16:30;6.50;;;0.60;;
1955;SDS011;978;48.314;11.562;2023-05-24T01:19:15;6.47;;;1.07;;
1955;SDS011;978;48.314;11.562;2023-05-24T01:22:12;6.33;;;0.60;;
1955;SDS011;978;48.314;11.562;2023-05-24T01:24:52;6.47;;;0.60;;
1955;SDS011;978;48.314;11.562;2023-05-24T01:27:30;6.43;;;0.40;;
1955;SDS011;978;48.314;11.562;2023-05-24T01:29:59;6.43;;;0.50;;
1955;SDS011;978;48.314;11.562;2023-05-24T01:32:27;6.43;;;0.80;;
1955;SDS011;978;48.314;11.562;2023-05-24T01:34:56;6.47;;;0.67;;
1955;SDS011;978;48.314;11.562;2023-05-24T01:37:24;6.50;;;0.80;;
1955;SDS011;978;48.314;11.562;2023-05-24T01:39:51;6.30;;;0.60;;
1955;SDS011;978;48.314;11.562;2023-05-24T01:42:22;6.40;;;0.53;;
1955;SDS011;978;48.314;11.562;2023-05-24T01:44:56;6.27;;;0.60;;
1955;SDS011;978;48.314;11.562;2023-05-24T01:47:40;6.10;;;0.50;;
1955;SDS011;978;48.314;11.562;2023-05-24T01:50:13;6.20;;;0.70;;
1955;SDS011;978;48.314;11.562;2023-05-24T01:52:47;6.33;;;0.60;;
1955;SDS011;978;48.314;11.562;2023-05-24T01:55:17;6.67;;;0.93;;
1955;SDS011;978;48.314;11.562;2023-05-24T01:57:44;6.30;;;0.70;;
1955;SDS011;978;48.314;11.562;2023-05-24T02:00:17;6.40;;;0.80;;
1955;SDS011;978;48.314;11.562;2023-05-24T02:02:45;6.40;;;0.80;;
1955;SDS011;978;48.314;11.562;2023-05-24T02:05:12;7.17;;;1.17;;
1955;SDS011;978;48.314;11.562;2023-05-24T02:07:39;6.30;;;0.70;;
1955;SDS011;978;48.314;11.562;2023-05-24T02:10:07;6.40;;;0.70;;
1955;SDS011;978;48.314;11.562;2023-05-24T02:12:36;6.07;;;0.60;;
1955;SDS011;978;48.314;11.562;2023-05-24T02:15:03;6.30;;;0.70;;
1955;SDS011;978;48.314;11.562;2023-05-24T02:17:36;6.20;;;0.50;;
1955;SDS011;978;48.314;11.562;2023-05-24T02:20:05;6.30;;;0.70;;
1955;SDS011;978;48.314;11.562;2023-05-24T02:22:33;6.20;;;0.67;;
1955;SDS011;978;48.314;11.562;2023-05-24T02:25:00;6.17;;;0.60;;
1955;SDS011;978;48.314;11.562;2023-05-24T02:27:32;6.17;;;0.50;;
1955;SDS011;978;48.314;11.562;2023-05-24T02:30:03;6.17;;;0.40;;
1955;SDS011;978;48.314;11.562;2023-05-24T02:32:34;6.10;;;0.47;;
1955;SDS011;978;48.314;11.562;2023-05-24T02:35:02;6.23;;;0.80;;
1955;SDS011;978;48.314;11.562;2023-05-24T02:37:30;6.30;;;0.70;;
1955;SDS011;978;48.314;11.562;2023-05-24T02:39:59;6.13;;;0.50;;
1955;SDS011;978;48.314;11.562;2023-05-24T02:42:26;6.17;;;0.50;;
1955;SDS011;978;48.314;11.562;2023-05-24T02:44:53;6.00;;;0.50;;
1955;SDS011;978;48.314;11.562;2023-05-24T02:47:20;6.23;;;0.87;;
1955;SDS011;978;48.314;11.562;2023-05-24T02:49:48;6.10;;;0.60;;
1955;SDS011;978;48.314;11.562;2023-05-24T02:52:17;6.10;;;0.50;;
1955;SDS011;978;48.314;11.562;2023-05-24T02:54:45;5.97;;;0.60;;
1955;SDS011;978;48.314;11.562;2023-05-24T02:57:14;5.90;;;0.50;;
1955;SDS011;978;48.314;11.562;2023-05-24T02:59:40;6.83;;;1.43;;
1955;SDS011;978;48.314;11.562;2023-05-24T03:02:09;6.10;;;0.50;;
1955;SDS011;978;48.314;11.562;2023-05-24T03:04:37;6.00;;;0.50;;
1955;SDS011;978;48.314;11.562;2023-05-24T03:07:06;6.10;;;0.50;;
1955;SDS011;978;48.314;11.562;2023-05-24T03:09:32;6.07;;;0.63;;
1955;SDS011;978;48.314;11.562;2023-05-24T03:12:04;5.93;;;0.57;;
1955;SDS011;978;48.314;11.562;2023-05-24T03:14:31;6.10;;;0.60;;
1955;SDS011;978;48.314;11.562;2023-05-24T03:17:00;6.10;;;0.67;;
1955;SDS011;978;48.314;11.562;2023-05-24T03:19:28;6.03;;;0.93;;
1955;SDS011;978;48.314;11.562;2023-05-24T03:21:56;5.93;;;0.50;;
1955;SDS011;978;48.314;11.562;2023-05-24T03:24:24;6.17;;;0.70;;
1955;SDS011;978;48.314;11.562;2023-05-24T03:26:51;6.20;;;1.27;;
1955;SDS011;978;48.314;11.562;2023-05-24T03:29:18;6.33;;;0.60;;
1955;SDS011;978;48.314;11.562;2023-05-24T03:31:44;6.27;;;0.80;;
1955;SDS011;978;48.314;11.562;2023-05-24T03:34:11;6.20;;;0.77;;
1955;SDS011;978;48.314;11.562;2023-05-24T03:36:39;6.00;;;0.50;;
1955;SDS011;978;48.314;11.562;2023-05-24T03:39:08;6.03;;;0.67;;
1955;SDS011;978;48.314;11.562;2023-05-24T03:41:37;6.00;;;0.73;;
1955;SDS011;978;48.314;11.562;2023-05-24T03:44:05;6.00;;;0.80;;
1955;SDS011;978;48.314;11.562;2023-05-24T03:46:35;5.83;;;0.60;;
1955;SDS011;978;48.314;11.562;2023-05-24T03:49:03;6.30;;;0.83;;
1955;SDS011;978;48.314;11.562;2023-05-24T03:51:32;5.90;;;0.50;;
1955;SDS011;978;48.314;11.562;2023-05-24T03:54:02;5.80;;;0.60;;
1955;SDS011;978;48.314;11.562;2023-05-24T03:56:29;5.93;;;0.53;;
1955;SDS011;978;48.314;11.562;2023-05-24T03:58:59;6.40;;;0.93;;
1955;SDS011;978;48.314;11.562;2023-05-24T04:01:29;6.00;;;0.60;;
1955;SDS011;978;48.314;11.562;2023-05-24T04:03:56;7.37;;;0.80;;
1955;SDS011;978;48.314;11.562;2023-05-24T04:06:24;5.80;;;0.50;;
1955;SDS011;978;48.314;11.562;2023-05-24T04:08:54;6.00;;;0.60;;
1955;SDS011;978;48.314;11.562;2023-05-24T04:11:21;5.80;;;0.50;;
1955;SDS011;978;48.314;11.562;2023-05-24T04:13:52;6.00;;;0.60;;
1955;SDS011;978;48.314;11.562;2023-05-24T04:16:22;5.90;;;0.60;;
1955;SDS011;978;48.314;11.562;2023-05-24T04:18:50;5.80;;;0.50;;
1955;SDS011;978;48.314;11.562;2023-05-24T04:21:16;6.00;;;0.70;;
1955;SDS011;978;48.314;11.562;2023-05-24T04:23:44;5.63;;;0.40;;
1955;SDS011;978;48.314;11.562;2023-05-24T04:26:12;5.77;;;0.57;;
1955;SDS011;978;48.314;11.562;2023-05-24T04:28:40;5.77;;;0.50;;
1955;SDS011;978;48.314;11.562;2023-05-24T04:31:07;5.80;;;0.60;;
1955;SDS011;978;48.314;11.562;2023-05-24T04:33:39;5.77;;;0.67;;
1955;SDS011;978;48.314;11.562;2023-05-24T04:36:07;6.07;;;0.87;;
1955;SDS011;978;48.314;11.562;2023-05-24T04:38:35;5.70;;;0.50;;
1955;SDS011;978;48.314;11.562;2023-05-24T04:41:05;5.70;;;0.50;;
1955;SDS011;978;48.314;11.562;2023-05-24T04:43:32;5.70;;;0.50;;
1955;SDS011;978;48.314;11.562;2023-05-24T04:46:03;5.60;;;0.50;;
1955;SDS011;978;48.314;11.562;2023-05-24T04:48:30;5.80;;;0.60;;
1955;SDS011;978;48.314;11.562;2023-05-24T04:51:01;5.70;;;0.60;;
1955;SDS011;978;48.314;11.562;2023-05-24T04:53:30;5.70;;;0.80;;
1955;SDS011;978;48.314;11.562;2023-05-24T04:55:58;5.53;;;0.50;;
1955;SDS011;978;48.314;11.562;2023-05-24T04:58:25;5.70;;;0.60;;
1955;SDS011;978;48.314;11.562;2023-05-24T05:00:54;5.67;;;0.50;;
1955;SDS011;978;48.314;11.562;2023-05-24T05:03:21;6.87;;;1.67;;
1955;SDS011;978;48.314;11.562;2023-05-24T05:05:48;5.60;;;0.40;;
1955;SDS011;978;48.314;11.562;2023-05-24T05:08:17;6.20;;;0.80;;
1955;SDS011;978;48.314;11.562;2023-05-24T05:10:44;5.73;;;0.60;;
1955;SDS011;978;48.314;11.562;2023-05-24T05:13:12;6.40;;;1.03;;
1955;SDS011;978;48.314;11.562;2023-05-24T05:15:39;5.70;;;0.70;;
1955;SDS011;978;48.314;11.562;2023-05-24T05:18:09;5.70;;;0.77;;
1955;SDS011;978;48.314;11.562;2023-05-24T05:20:38;5.53;;;0.40;;
1955;SDS011;978;48.314;11.562;2023-05-24T05:23:04;6.00;;;0.73;;
1955;SDS011;978;48.314;11.562;2023-05-24T05:25:37;5.60;;;0.60;;
1955;SDS011;978;48.314;11.562;2023-05-24T05:28:07;5.80;;;0.80;;
1955;SDS011;978;48.314;11.562;2023-05-24T05:30:36;5.70;;;0.60;;
1955;SDS011;978;48.314;11.562;2023-05-24T05:33:05;5.70;;;0.60;;
1955;SDS011;978;48.314;11.562;2023-05-24T05:35:34;5.53;;;0.40;;
1955;SDS011;978;48.314;11.562;2023-05-24T05:38:05;5.53;;;0.47;;
1955;SDS011;978;48.314;11.562;2023-05-24T05:40:36;5.67;;;0.50;;
1955;SDS011;978;48.314;11.562;2023-05-24T05:43:03;5.60;;;0.60;;
1955;SDS011;978;48.314;11.562;2023-05-24T05:45:32;6.00;;;1.30;;
1955;SDS011;978;48.314;11.562;2023-05-24T05:47:59;5.80;;;0.80;;
1955;SDS011;978;48.314;11.562;2023-05-24T05:50:26;5.70;;;0.50;;
1955;SDS011;978;48.314;11.562;2023-05-24T05:52:53;5.50;;;0.40;;
1955;SDS011;978;48.314;11.562;2023-05-24T05:55:21;5.63;;;0.47;;
1955;SDS011;978;48.314;11.562;2023-05-24T05:57:53;5.60;;;0.50;;
1955;SDS011;978;48.314;11.562;2023-05-24T06:00:20;5.60;;;0.50;;
1955;SDS011;978;48.314;11.562;2023-05-24T06:02:50;5.90;;;0.70;;
1955;SDS011;978;48.314;11.562;2023-05-24T06:05:17;5.57;;;0.60;;
1955;SDS011;978;48.314;11.562;2023-05-24T06:07:44;5.50;;;0.60;;
1955;SDS011;978;48.314;11.562;2023-05-24T06:10:14;6.27;;;0.60;;
1955;SDS011;978;48.314;11.562;2023-05-24T06:12:43;5.90;;;1.03;;
1955;SDS011;978;48.314;11.562;2023-05-24T06:15:11;5.60;;;0.60;;
1955;SDS011;978;48.314;11.562;2023-05-24T06:17:39;5.60;;;0.50;;
1955;SDS011;978;48.314;11.562;2023-05-24T06:20:13;5.60;;;0.43;;
1955;SDS011;978;48.314;11.562;2023-05-24T06:22:42;5.73;;;0.67;;
1955;SDS011;978;48.314;11.562;2023-05-24T06:25:09;5.80;;;0.60;;
1955;SDS011;978;48.314;11.562;2023-05-24T06:27:39;5.60;;;0.60;;
1955;SDS011;978;48.314;11.562;2023-05-24T06:30:09;6.87;;;2.20;;
1955;SDS011;978;48.314;11.562;2023-05-24T06:32:40;5.80;;;0.80;;
1955;SDS011;978;48.314;11.562;2023-05-24T06:35:10;5.60;;;0.50;;
1955;SDS011;978;48.314;11.562;2023-05-24T06:37:40;5.60;;;0.50;;
1955;SDS011;978;48.314;11.562;2023-05-24T06:40:07;5.80;;;0.83;;
1955;SDS011;978;48.314;11.562;2023-05-24T06:42:35;5.60;;;0.50;;
1955;SDS011;978;48.314;11.562;2023-05-24T06:45:03;5.90;;;0.97;;
1955;SDS011;978;48.314;11.562;2023-05-24T06:47:30;5.60;;;0.40;;
1955;SDS011;978;48.314;11.562;2023-05-24T06:50:01;5.70;;;0.70;;
1955;SDS011;978;48.314;11.562;2023-05-24T06:52:28;5.77;;;0.80;;
1955;SDS011;978;48.314;11.562;2023-05-24T06:54:55;5.60;;;0.60;;
1955;SDS011;978;48.314;11.562;2023-05-24T06:57:22;5.60;;;0.40;;
1955;SDS011;978;48.314;11.562;2023-05-24T06:59:50;5.73;;;0.70;;
1955;SDS011;978;48.314;11.562;2023-05-24T07:02:18;5.60;;;0.40;;
1955;SDS011;978;48.314;11.562;2023-05-24T07:04:50;5.57;;;0.50;;
1955;SDS011;978;48.314;11.562;2023-05-24T07:07:22;5.57;;;0.63;;
1955;SDS011;978;48.314;11.562;2023-05-24T07:09:50;5.60;;;0.43;;
1955;SDS011;978;48.314;11.562;2023-05-24T07:12:18;5.60;;;0.60;;
1955;SDS011;978;48.314;11.562;2023-05-24T07:14:46;5.80;;;0.63;;
1955;SDS011;978;48.314;11.562;2023-05-24T07:17:16;5.63;;;0.70;;
1955;SDS011;978;48.314;11.562;2023-05-24T07:19:47;5.70;;;0.70;;
1955;SDS011;978;48.314;11.562;2023-05-24T07:22:15;5.60;;;0.50;;
1955;SDS011;978;48.314;11.562;2023-05-24T07:24:44;5.57;;;0.50;;
1955;SDS011;978;48.314;11.562;2023-05-24T07:27:12;6.10;;;1.23;;
1955;SDS011;978;48.314;11.562;2023-05-24T07:29:41;7.17;;;1.53;;
1955;SDS011;978;48.314;11.562;2023-05-24T07:32:10;6.57;;;1.47;;
1955;SDS011;978;48.314;11.562;2023-05-24T07:34:38;5.70;;;0.77;;
1955;SDS011;978;48.314;11.562;2023-05-24T07:37:05;5.77;;;0.70;;
1955;SDS011;978;48.314;11.562;2023-05-24T07:39:36;5.60;;;1.13;;
1955;SDS011;978;48.314;11.562;2023-05-24T07:42:04;5.57;;;0.70;;
1955;SDS011;978;48.314;11.562;2023-05-24T07:44:31;5.70;;;0.70;;
1955;SDS011;978;48.314;11.562;2023-05-24T07:46:58;5.63;;;0.50;;
1955;SDS011;978;48.314;11.562;2023-05-24T07:49:27;6.10;;;1.03;;
1955;SDS011;978;48.314;11.562;2023-05-24T07:51:54;5.80;;;0.60;;
1955;SDS011;978;48.314;11.562;2023-05-24T07:54:23;6.20;;;1.10;;
1955;SDS011;978;48.314;11.562;2023-05-24T07:56:51;6.10;;;0.90;;
1955;SDS011;978;48.314;11.562;2023-05-24T07:59:21;5.90;;;0.90;;
1955;SDS011;978;48.314;11.562;2023-05-24T08:01:52;6.00;;;0.90;;
1955;SDS011;978;48.314;11.562;2023-05-24T08:04:20;6.40;;;1.40;;
1955;SDS011;978;48.314;11.562;2023-05-24T08:06:49;7.53;;;1.00;;
1955;SDS011;978;48.314;11.562;2023-05-24T08:09:18;5.90;;;0.63;;
1955;SDS011;978;48.314;11.562;2023-05-24T08:11:46;5.70;;;0.50;;
1955;SDS011;978;48.314;11.562;2023-05-24T08:14:14;6.00;;;0.90;;
1955;SDS011;978;48.314;11.562;2023-05-24T08:16:42;5.80;;;0.60;;
1955;SDS011;978;48.314;11.562;2023-05-24T08:19:09;6.63;;;0.93;;
1955;SDS011;978;48.314;11.562;2023-05-24T08:21:36;5.67;;;0.53;;
1955;SDS011;978;48.314;11.562;2023-05-24T08:24:06;5.90;;;0.67;;
1955;SDS011;978;48.314;11.562;2023-05-24T08:26:36;5.90;;;0.93;;
1955;SDS011;978;48.314;11.562;2023-05-24T08:29:04;5.73;;;0.50;;
1955;SDS011;978;48.314;11.562;2023-05-24T08:31:31;5.90;;;0.90;;
1955;SDS011;978;48.314;11.562;2023-05-24T08:33:59;5.73;;;0.50;;
1955;SDS011;978;48.314;11.562;2023-05-24T08:36:26;5.90;;;0.70;;
1955;SDS011;978;48.314;11.562;2023-05-24T08:38:56;6.00;;;0.90;;
1955;SDS011;978;48.314;11.562;2023-05-24T08:41:25;5.80;;;0.80;;
1955;SDS011;978;48.314;11.562;2023-05-24T08:43:53;7.03;;;1.30;;
1955;SDS011;978;48.314;11.562;2023-05-24T08:46:23;6.37;;;0.80;;
1955;SDS011;978;48.314;11.562;2023-05-24T08:48:51;6.00;;;0.83;;
1955;SDS011;978;48.314;11.562;2023-05-24T08:51:21;6.00;;;0.60;;
1955;SDS011;978;48.314;11.562;2023-05-24T08:53:51;5.73;;;0.50;;
1955;SDS011;978;48.314;11.562;2023-05-24T08:56:19;6.13;;;1.03;;
1955;SDS011;978;48.314;11.562;2023-05-24T08:58:49;5.77;;;0.70;;
1955;SDS011;978;48.314;11.562;2023-05-24T09:01:16;6.10;;;0.97;;
1955;SDS011;978;48.314;11.562;2023-05-24T09:03:43;5.97;;;0.80;;
1955;SDS011;978;48.314;11.562;2023-05-24T09:06:23;6.40;;;1.13;;
1955;SDS011;978;48.314;11.562;2023-05-24T09:08:51;5.83;;;0.80;;
1955;SDS011;978;48.314;11.562;2023-05-24T09:11:20;5.87;;;0.80;;
1955;SDS011;978;48.314;11.562;2023-05-24T09:13:51;6.00;;;1.30;;
1955;SDS011;978;48.314;11.562;2023-05-24T09:16:21;5.73;;;0.50;;
1955;SDS011;978;48.314;11.562;2023-05-24T09:18:47;6.00;;;1.03;;
1955;SDS011;978;48.314;11.562;2023-05-24T09:21:14;5.80;;;0.70;;
1955;SDS011;978;48.314;11.562;2023-05-24T09:23:43;5.80;;;0.50;;
1955;SDS011;978;48.314;11.562;2023-05-24T09:26:10;5.87;;;0.80;;
1955;SDS011;978;48.314;11.562;2023-05-24T09:28:38;6.30;;;1.07;;
1955;SDS011;978;48.314;11.562;2023-05-24T09:31:06;5.80;;;0.60;;
1955;SDS011;978;48.314;11.562;2023-05-24T09:33:33;6.07;;;1.30;;
1955;SDS011;978;48.314;11.562;2023-05-24T09:36:01;6.10;;;1.10;;
1955;SDS011;978;48.314;11.562;2023-05-24T09:38:30;5.83;;;0.70;;
1955;SDS011;978;48.314;11.562;2023-05-24T09:41:04;6.47;;;1.20;;
1955;SDS011;978;48.314;11.562;2023-05-24T09:43:33;5.83;;;0.57;;
1955;SDS011;978;48.314;11.562;2023-05-24T09:46:01;5.93;;;0.83;;
1955;SDS011;978;48.314;11.562;2023-05-24T09:48:29;6.00;;;0.70;;
1955;SDS011;978;48.314;11.562;2023-05-24T09:50:58;5.73;;;0.57;;
1955;SDS011;978;48.314;11.562;2023-05-24T09:53:28;5.90;;;1.13;;
1955;SDS011;978;48.314;11.562;2023-05-24T09:55:56;5.80;;;0.77;;
1955;SDS011;978;48.314;11.562;2023-05-24T09:58:25;5.77;;;0.57;;
1955;SDS011;978;48.314;11.562;2023-05-24T10:01:02;7.17;;;1.43;;
1955;SDS011;978;48.314;11.562;2023-05-24T10:03:30;6.30;;;1.30;;
1955;SDS011;978;48.314;11.562;2023-05-24T10:05:57;5.60;;;0.50;;
1955;SDS011;978;48.314;11.562;2023-05-24T10:08:28;5.77;;;0.70;;
1955;SDS011;978;48.314;11.562;2023-05-24T10:10:57;6.30;;;0.90;;
1955;SDS011;978;48.314;11.562;2023-05-24T10:13:26;5.97;;;0.83;;
1955;SDS011;978;48.314;11.562;2023-05-24T10:15:55;5.90;;;1.30;;
1955;SDS011;978;48.314;11.562;2023-05-24T10:18:22;5.73;;;0.50;;
1955;SDS011;978;48.314;11.562;2023-05-24T10:20:49;6.00;;;0.73;;
1955;SDS011;978;48.314;11.562;2023-05-24T10:23:18;5.90;;;0.73;;
1955;SDS011;978;48.314;11.562;2023-05-24T10:25:49;5.80;;;1.00;;
1955;SDS011;978;48.314;11.562;2023-05-24T10:28:21;5.70;;;0.60;;
1955;SDS011;978;48.314;11.562;2023-05-24T10:30:52;6.23;;;0.80;;
1955;SDS011;978;48.314;11.562;2023-05-24T10:33:27;6.00;;;1.20;;
1955;SDS011;978;48.314;11.562;2023-05-24T10:35:56;5.77;;;0.63;;
1955;SDS011;978;48.314;11.562;2023-05-24T10:38:23;7.70;;;1.10;;
1955;SDS011;978;48.314;11.562;2023-05-24T10:40:50;5.70;;;0.60;;
1955;SDS011;978;48.314;11.562;2023-05-24T10:43:17;5.80;;;0.67;;
1955;SDS011;978;48.314;11.562;2023-05-24T10:45:47;7.53;;;1.20;;
1955;SDS011;978;48.314;11.562;2023-05-24T10:48:32;5.67;;;0.53;;
1955;SDS011;978;48.314;11.562;2023-05-24T10:54:13;5.70;;;0.60;;
1955;SDS011;978;48.314;11.562;2023-05-24T10:56:46;6.10;;;0.73;;
1955;SDS011;978;48.314;11.562;2023-05-24T10:59:30;5.90;;;0.60;;
1955;SDS011;978;48.314;11.562;2023-05-24T11:02:01;5.80;;;0.80;;
1955;SDS011;978;48.314;11.562;2023-05-24T11:04:31;6.20;;;0.77;;
1955;SDS011;978;48.314;11.562;2023-05-24T11:07:02;5.83;;;0.77;;
1955;SDS011;978;48.314;11.562;2023-05-24T11:09:30;6.63;;;1.67;;
1955;SDS011;978;48.314;11.562;2023-05-24T11:11:59;5.80;;;0.90;;
1955;SDS011;978;48.314;11.562;2023-05-24T11:14:29;5.90;;;0.90;;
1955;SDS011;978;48.314;11.562;2023-05-24T11:16:57;6.40;;;0.80;;
1955;SDS011;978;48.314;11.562;2023-05-24T11:19:29;6.17;;;1.17;;
1955;SDS011;978;48.314;11.562;2023-05-24T11:22:00;5.90;;;1.30;;
1955;SDS011;978;48.314;11.562;2023-05-24T11:24:31;5.80;;;0.97;;
1955;SDS011;978;48.314;11.562;2023-05-24T11:26:58;5.60;;;0.60;;
1955;SDS011;978;48.314;11.562;2023-05-24T11:29:26;5.80;;;1.00;;
1955;SDS011;978;48.314;11.562;2023-05-24T11:31:55;5.93;;;0.83;;
1955;SDS011;978;48.314;11.562;2023-05-24T11:34:26;5.67;;;0.77;;
1955;SDS011;978;48.314;11.562;2023-05-24T11:36:56;5.60;;;0.80;;
1955;SDS011;978;48.314;11.562;2023-05-24T11:39:28;5.50;;;0.70;;
1955;SDS011;978;48.314;11.562;2023-05-24T11:41:57;6.47;;;1.53;;
1955;SDS011;978;48.314;11.562;2023-05-24T11:44:28;5.63;;;0.87;;
1955;SDS011;978;48.314;11.562;2023-05-24T11:46:56;5.47;;;0.60;;
1955;SDS011;978;48.314;11.562;2023-05-24T11:49:25;5.70;;;1.03;;
1955;SDS011;978;48.314;11.562;2023-05-24T11:51:53;5.53;;;0.80;;
1955;SDS011;978;48.314;11.562;2023-05-24T11:54:22;5.50;;;0.60;;
1955;SDS011;978;48.314;11.562;2023-05-24T11:56:52;5.50;;;0.60;;
1955;SDS011;978;48.314;11.562;2023-05-24T11:59:21;5.40;;;0.50;;
1955;SDS011;978;48.314;11.562;2023-05-24T12:01:55;5.40;;;0.50;;
1955;SDS011;978;48.314;11.562;2023-05-24T12:04:23;5.60;;;0.67;;
1955;SDS011;978;48.314;11.562;2023-05-24T12:06:51;5.30;;;0.50;;
1955;SDS011;978;48.314;11.562;2023-05-24T12:12:04;5.83;;;1.33;;
1955;SDS011;978;48.314;11.562;2023-05-24T12:14:32;5.20;;;0.77;;
1955;SDS011;978;48.314;11.562;2023-05-24T12:17:00;6.03;;;1.63;;
1955;SDS011;978;48.314;11.562;2023-05-24T12:19:28;5.17;;;1.23;;
1955;SDS011;978;48.314;11.562;2023-05-24T12:21:58;5.87;;;1.77;;
1955;SDS011;978;48.314;11.562;2023-05-24T12:24:27;4.90;;;1.20;;
1955;SDS011;978;48.314;11.562;2023-05-24T12:27:01;5.00;;;1.27;;
1955;SDS011;978;48.314;11.562;2023-05-24T12:29:33;5.47;;;2.00;;
1955;SDS011;978;48.314;11.562;2023-05-24T12:32:01;6.87;;;1.23;;
1955;SDS011;978;48.314;11.562;2023-05-24T12:34:28;4.70;;;1.10;;
1955;SDS011;978;48.314;11.562;2023-05-24T12:36:56;5.20;;;1.20;;
1955;SDS011;978;48.314;11.562;2023-05-24T12:39:25;4.83;;;1.27;;
1955;SDS011;978;48.314;11.562;2023-05-24T12:41:55;5.83;;;1.83;;
1955;SDS011;978;48.314;11.562;2023-05-24T12:44:25;4.47;;;1.20;;
1955;SDS011;978;48.314;11.562;2023-05-24T12:46:53;4.37;;;0.80;;
1955;SDS011;978;48.314;11.562;2023-05-24T12:49:22;6.50;;;2.10;;
1955;SDS011;978;48.314;11.562;2023-05-24T12:51:50;4.80;;;1.57;;
1955;SDS011;978;48.314;11.562;2023-05-24T12:54:20;4.47;;;0.90;;
1955;SDS011;978;48.314;11.562;2023-05-24T12:56:49;4.90;;;0.97;;
1955;SDS011;978;48.314;11.562;2023-05-24T12:59:18;4.60;;;0.60;;
1955;SDS011;978;48.314;11.562;2023-05-24T13:01:48;5.40;;;1.60;;
1955;SDS011;978;48.314;11.562;2023-05-24T13:04:16;4.67;;;0.80;;
1955;SDS011;978;48.314;11.562;2023-05-24T13:06:45;4.70;;;0.80;;
1955;SDS011;978;48.314;11.562;2023-05-24T13:09:14;4.80;;;0.90;;
1955;SDS011;978;48.314;11.562;2023-05-24T13:11:42;4.80;;;0.97;;
1955;SDS011;978;48.314;11.562;2023-05-24T13:14:10;4.90;;;1.10;;
1955;SDS011;978;48.314;11.562;2023-05-24T13:16:40;5.10;;;1.13;;
1955;SDS011;978;48.314;11.562;2023-05-24T13:19:10;4.80;;;0.80;;
1955;SDS011;978;48.314;11.562;2023-05-24T13:21:38;6.80;;;1.83;;
1955;SDS011;978;48.314;11.562;2023-05-24T13:24:05;4.73;;;0.97;;
1955;SDS011;978;48.314;11.562;2023-05-24T13:26:34;4.80;;;1.10;;
1955;SDS011;978;48.314;11.562;2023-05-24T13:29:02;5.20;;;1.30;;
1955;SDS011;978;48.314;11.562;2023-05-24T13:31:30;5.10;;;1.10;;
1955;SDS011;978;48.314;11.562;2023-05-24T13:33:56;5.10;;;1.27;;
1955;SDS011;978;48.314;11.562;2023-05-24T13:36:29;4.90;;;1.10;;
1955;SDS011;978;48.314;11.562;2023-05-24T13:38:56;5.00;;;0.80;;
1955;SDS011;978;48.314;11.562;2023-05-24T13:41:26;4.73;;;0.87;;
1955;SDS011;978;48.314;11.562;2023-05-24T13:43:55;5.50;;;1.80;;
1955;SDS011;978;48.314;11.562;2023-05-24T13:46:23;4.97;;;1.30;;
1955;SDS011;978;48.314;11.562;2023-05-24T13:48:50;4.80;;;0.90;;
1955;SDS011;978;48.314;11.562;2023-05-24T13:51:18;4.90;;;1.10;;
1955;SDS011;978;48.314;11.562;2023-05-24T13:53:48;4.73;;;0.93;;
1955;SDS011;978;48.314;11.562;2023-05-24T13:56:19;5.10;;;1.23;;
1955;SDS011;978;48.314;11.562;2023-05-24T13:58:48;4.90;;;1.17;;
1955;SDS011;978;48.314;11.562;2023-05-24T14:01:16;5.00;;;1.00;;
1955;SDS011;978;48.314;11.562;2023-05-24T14:03:43;5.07;;;0.97;;
1955;SDS011;978;48.314;11.562;2023-05-24T14:06:10;5.20;;;1.10;;
1955;SDS011;978;48.314;11.562;2023-05-24T14:08:36;4.73;;;0.70;;
1955;SDS011;978;48.314;11.562;2023-05-24T14:11:04;5.10;;;1.20;;
1955;SDS011;978;48.314;11.562;2023-05-24T14:13:31;4.80;;;1.00;;
1955;SDS011;978;48.314;11.562;2023-05-24T14:15:59;4.70;;;0.67;;
1955;SDS011;978;48.314;11.562;2023-05-24T14:18:27;4.87;;;1.00;;
1955;SDS011;978;48.314;11.562;2023-05-24T14:20:54;4.80;;;0.90;;
1955;SDS011;978;48.314;11.562;2023-05-24T14:23:22;4.90;;;1.03;;
1955;SDS011;978;48.314;11.562;2023-05-24T14:25:49;4.70;;;0.70;;
1955;SDS011;978;48.314;11.562;2023-05-24T14:28:23;4.90;;;0.90;;
1955;SDS011;978;48.314;11.562;2023-05-24T14:30:50;4.70;;;0.70;;
1955;SDS011;978;48.314;11.562;2023-05-24T14:33:17;5.00;;;1.33;;
1955;SDS011;978;48.314;11.562;2023-05-24T14:35:43;5.10;;;1.30;;
1955;SDS011;978;48.314;11.562;2023-05-24T14:38:10;4.63;;;0.50;;
1955;SDS011;978;48.314;11.562;2023-05-24T14:40:37;4.83;;;0.90;;
1955;SDS011;978;48.314;11.562;2023-05-24T14:43:05;4.70;;;0.67;;
1955;SDS011;978;48.314;11.562;2023-05-24T14:45:35;4.90;;;1.10;;
1955;SDS011;978;48.314;11.562;2023-05-24T14:48:05;4.80;;;0.80;;
1955;SDS011;978;48.314;11.562;2023-05-24T14:50:35;4.87;;;0.80;;
1955;SDS011;978;48.314;11.562;2023-05-24T14:53:03;5.80;;;1.20;;
1955;SDS011;978;48.314;11.562;2023-05-24T14:55:33;4.63;;;0.67;;
1955;SDS011;978;48.314;11.562;2023-05-24T14:58:01;4.90;;;0.73;;
1955;SDS011;978;48.314;11.562;2023-05-24T15:00:28;4.70;;;0.60;;
1955;SDS011;978;48.314;11.562;2023-05-24T15:02:58;5.00;;;0.90;;
1955;SDS011;978;48.314;11.562;2023-05-24T15:05:26;5.30;;;1.03;;
1955;SDS011;978;48.314;11.562;2023-05-24T15:07:54;5.00;;;1.13;;
1955;SDS011;978;48.314;11.562;2023-05-24T15:10:21;5.47;;;1.43;;
1955;SDS011;978;48.314;11.562;2023-05-24T15:12:48;5.03;;;1.13;;
1955;SDS011;978;48.314;11.562;2023-05-24T15:15:16;4.77;;;0.70;;
1955;SDS011;978;48.314;11.562;2023-05-24T15:17:42;5.73;;;1.77;;
1955;SDS011;978;48.314;11.562;2023-05-24T15:20:12;5.10;;;1.17;;
1955;SDS011;978;48.314;11.562;2023-05-24T15:22:40;4.90;;;0.70;;
1955;SDS011;978;48.314;11.562;2023-05-24T15:25:07;4.63;;;0.50;;
1955;SDS011;978;48.314;11.562;2023-05-24T15:27:35;4.70;;;0.60;;
1955;SDS011;978;48.314;11.562;2023-05-24T15:30:02;4.63;;;0.70;;
1955;SDS011;978;48.314;11.562;2023-05-24T15:32:29;5.20;;;1.00;;